sensor_id;sensor_type;location;lat;lon;timestamp;temperature;humidity
57857;DHT22;43683;48.650;9.290;2023-05-21T00:02:16;13.90;78.50
57857;DHT22;43683;48.650;9.290;2023-05-21T00:04:43;13.90;78.70
57857;DHT22;43683;48.650;9.290;2023-05-21T00:07:09;13.90;78.70
57857;DHT22;43683;48.650;9.290;2023-05-21T00:09:36;13.90;78.70
57857;DHT22;43683;48.650;9.290;2023-05-21T00:12:06;13.90;78.90
57857;DHT22;43683;48.650;9.290;2023-05-21T00:14:32;13.90;78.90
57857;DHT22;43683;48.650;9.290;2023-05-21T00:16:57;13.90;78.80
57857;DHT22;43683;48.650;9.290;2023-05-21T00:19:23;14.00;78.70
57857;DHT22;43683;48.650;9.290;2023-05-21T00:21:48;14.00;78.80
57857;DHT22;43683;48.650;9.290;2023-05-21T00:24:14;14.00;78.90
57857;DHT22;43683;48.650;9.290;2023-05-21T00:26:41;14.00;78.90
57857;DHT22;43683;48.650;9.290;2023-05-21T00:29:06;14.00;78.90
57857;DHT22;43683;48.650;9.290;2023-05-21T00:31:32;14.00;78.90
57857;DHT22;43683;48.650;9.290;2023-05-21T00:33:57;14.00;79.00
57857;DHT22;43683;48.650;9.290;2023-05-21T00:36:23;14.10;79.00
57857;DHT22;43683;48.650;9.290;2023-05-21T00:38:50;14.10;79.10
57857;DHT22;43683;48.650;9.290;2023-05-21T00:41:16;14.10;79.10
57857;DHT22;43683;48.650;9.290;2023-05-21T00:43:42;14.10;79.30
57857;DHT22;43683;48.650;9.290;2023-05-21T00:46:14;14.10;79.40
57857;DHT22;43683;48.650;9.290;2023-05-21T00:48:42;14.00;79.60
57857;DHT22;43683;48.650;9.290;2023-05-21T00:51:08;14.00;79.60
57857;DHT22;43683;48.650;9.290;2023-05-21T00:53:34;14.00;79.70
57857;DHT22;43683;48.650;9.290;2023-05-21T00:56:00;14.00;80.00
57857;DHT22;43683;48.650;9.290;2023-05-21T00:58:27;13.90;80.10
57857;DHT22;43683;48.650;9.290;2023-05-21T01:00:54;13.90;80.30
57857;DHT22;43683;48.650;9.290;2023-05-21T01:03:22;13.90;80.40
57857;DHT22;43683;48.650;9.290;2023-05-21T01:05:51;13.80;80.60
57857;DHT22;43683;48.650;9.290;2023-05-21T01:08:18;13.80;80.90
57857;DHT22;43683;48.650;9.290;2023-05-21T01:10:46;13.80;80.90
57857;DHT22;43683;48.650;9.290;2023-05-21T01:13:14;13.90;80.90
57857;DHT22;43683;48.650;9.290;2023-05-21T01:15:42;13.90;80.90
57857;DHT22;43683;48.650;9.290;2023-05-21T01:18:08;13.90;80.90
57857;DHT22;43683;48.650;9.290;2023-05-21T01:20:33;13.90;80.70
57857;DHT22;43683;48.650;9.290;2023-05-21T01:22:59;13.90;80.90
57857;DHT22;43683;48.650;9.290;2023-05-21T01:25:25;13.90;81.10
57857;DHT22;43683;48.650;9.290;2023-05-21T01:27:51;13.80;81.40
57857;DHT22;43683;48.650;9.290;2023-05-21T01:30:18;13.70;81.60
57857;DHT22;43683;48.650;9.290;2023-05-21T01:36:06;13.50;82.30
57857;DHT22;43683;48.650;9.290;2023-05-21T01:38:42;13.40;82.50
57857;DHT22;43683;48.650;9.290;2023-05-21T01:41:16;13.30;82.80
57857;DHT22;43683;48.650;9.290;2023-05-21T01:43:44;13.20;82.90
57857;DHT22;43683;48.650;9.290;2023-05-21T01:46:15;13.10;83.20
57857;DHT22;43683;48.650;9.290;2023-05-21T01:48:42;13.00;83.50
57857;DHT22;43683;48.650;9.290;2023-05-21T01:51:08;13.00;83.70
57857;DHT22;43683;48.650;9.290;2023-05-21T01:53:34;12.90;83.80
57857;DHT22;43683;48.650;9.290;2023-05-21T01:56:00;12.90;84.00
57857;DHT22;43683;48.650;9.290;2023-05-21T01:58:27;12.80;84.30
57857;DHT22;43683;48.650;9.290;2023-05-21T02:00:52;12.80;84.40
57857;DHT22;43683;48.650;9.290;2023-05-21T02:03:19;12.70;84.50
57857;DHT22;43683;48.650;9.290;2023-05-21T02:05:45;12.60;84.70
57857;DHT22;43683;48.650;9.290;2023-05-21T02:08:11;12.60;84.80
57857;DHT22;43683;48.650;9.290;2023-05-21T02:10:39;12.60;85.00
57857;DHT22;43683;48.650;9.290;2023-05-21T02:13:05;12.50;85.20
57857;DHT22;43683;48.650;9.290;2023-05-21T02:15:30;12.50;85.30
57857;DHT22;43683;48.650;9.290;2023-05-21T02:17:58;12.50;85.40
57857;DHT22;43683;48.650;9.290;2023-05-21T02:20:24;12.40;85.60
57857;DHT22;43683;48.650;9.290;2023-05-21T02:22:49;12.40;85.80
57857;DHT22;43683;48.650;9.290;2023-05-21T02:25:16;12.40;85.90
57857;DHT22;43683;48.650;9.290;2023-05-21T02:27:43;12.40;86.10
57857;DHT22;43683;48.650;9.290;2023-05-21T02:30:10;12.30;86.00
57857;DHT22;43683;48.650;9.290;2023-05-21T02:32:36;12.30;86.20
57857;DHT22;43683;48.650;9.290;2023-05-21T02:35:03;12.30;86.30
57857;DHT22;43683;48.650;9.290;2023-05-21T02:37:30;12.20;86.40
57857;DHT22;43683;48.650;9.290;2023-05-21T02:39:59;12.20;86.50
57857;DHT22;43683;48.650;9.290;2023-05-21T02:42:25;12.20;86.70
57857;DHT22;43683;48.650;9.290;2023-05-21T02:44:51;12.20;86.70
57857;DHT22;43683;48.650;9.290;2023-05-21T02:47:18;12.10;86.90
57857;DHT22;43683;48.650;9.290;2023-05-21T02:49:44;12.10;87.00
57857;DHT22;43683;48.650;9.290;2023-05-21T02:52:10;12.20;87.10
57857;DHT22;43683;48.650;9.290;2023-05-21T02:54:35;12.10;87.10
57857;DHT22;43683;48.650;9.290;2023-05-21T02:57:01;12.10;87.30
57857;DHT22;43683;48.650;9.290;2023-05-21T02:59:26;12.10;87.50
57857;DHT22;43683;48.650;9.290;2023-05-21T03:01:52;12.00;87.70
57857;DHT22;43683;48.650;9.290;2023-05-21T03:04:17;12.00;87.80
57857;DHT22;43683;48.650;9.290;2023-05-21T03:06:46;12.00;87.80
57857;DHT22;43683;48.650;9.290;2023-05-21T03:09:11;12.00;87.90
57857;DHT22;43683;48.650;9.290;2023-05-21T03:11:37;12.00;88.10
57857;DHT22;43683;48.650;9.290;2023-05-21T03:14:02;11.90;88.20
57857;DHT22;43683;48.650;9.290;2023-05-21T03:16:28;11.90;88.40
57857;DHT22;43683;48.650;9.290;2023-05-21T03:18:54;11.80;88.60
57857;DHT22;43683;48.650;9.290;2023-05-21T03:21:20;11.80;88.80
57857;DHT22;43683;48.650;9.290;2023-05-21T03:23:47;11.80;88.90
57857;DHT22;43683;48.650;9.290;2023-05-21T03:26:13;11.80;89.00
57857;DHT22;43683;48.650;9.290;2023-05-21T03:28:38;11.70;89.10
57857;DHT22;43683;48.650;9.290;2023-05-21T03:31:04;11.60;89.20
57857;DHT22;43683;48.650;9.290;2023-05-21T03:33:30;11.50;89.30
57857;DHT22;43683;48.650;9.290;2023-05-21T03:35:55;11.50;89.60
57857;DHT22;43683;48.650;9.290;2023-05-21T03:38:21;11.50;89.70
57857;DHT22;43683;48.650;9.290;2023-05-21T03:40:46;11.50;89.80
57857;DHT22;43683;48.650;9.290;2023-05-21T03:43:12;11.40;89.80
57857;DHT22;43683;48.650;9.290;2023-05-21T03:45:37;11.40;90.00
57857;DHT22;43683;48.650;9.290;2023-05-21T03:48:03;11.40;90.00
57857;DHT22;43683;48.650;9.290;2023-05-21T03:50:29;11.40;90.00
57857;DHT22;43683;48.650;9.290;2023-05-21T03:52:55;11.40;90.00
57857;DHT22;43683;48.650;9.290;2023-05-21T03:55:20;11.40;90.00
57857;DHT22;43683;48.650;9.290;2023-05-21T03:57:46;11.40;90.00
57857;DHT22;43683;48.650;9.290;2023-05-21T04:00:12;11.50;90.00
57857;DHT22;43683;48.650;9.290;2023-05-21T04:02:38;11.50;90.00
57857;DHT22;43683;48.650;9.290;2023-05-21T04:05:03;11.60;90.10
57857;DHT22;43683;48.650;9.290;2023-05-21T04:07:29;11.60;90.10
57857;DHT22;43683;48.650;9.290;2023-05-21T04:09:55;11.60;90.10
57857;DHT22;43683;48.650;9.290;2023-05-21T04:12:21;11.60;90.10
57857;DHT22;43683;48.650;9.290;2023-05-21T04:14:46;11.60;90.10
57857;DHT22;43683;48.650;9.290;2023-05-21T04:17:12;11.70;90.10
57857;DHT22;43683;48.650;9.290;2023-05-21T04:19:38;11.60;90.10
57857;DHT22;43683;48.650;9.290;2023-05-21T04:22:04;11.70;90.10
57857;DHT22;43683;48.650;9.290;2023-05-21T04:24:30;11.70;90.10
57857;DHT22;43683;48.650;9.290;2023-05-21T04:26:55;11.80;90.10
57857;DHT22;43683;48.650;9.290;2023-05-21T04:29:28;11.80;90.00
57857;DHT22;43683;48.650;9.290;2023-05-21T04:31:54;11.90;90.00
57857;DHT22;43683;48.650;9.290;2023-05-21T04:34:20;12.00;89.90
57857;DHT22;43683;48.650;9.290;2023-05-21T04:36:46;12.00;89.80
57857;DHT22;43683;48.650;9.290;2023-05-21T04:39:13;12.10;89.70
57857;DHT22;43683;48.650;9.290;2023-05-21T04:41:39;12.20;89.70
57857;DHT22;43683;48.650;9.290;2023-05-21T04:44:08;12.30;89.60
57857;DHT22;43683;48.650;9.290;2023-05-21T04:46:34;12.40;89.60
57857;DHT22;43683;48.650;9.290;2023-05-21T04:49:00;12.40;89.30
57857;DHT22;43683;48.650;9.290;2023-05-21T04:51:27;12.60;89.30
57857;DHT22;43683;48.650;9.290;2023-05-21T04:53:53;12.60;89.10
57857;DHT22;43683;48.650;9.290;2023-05-21T04:56:19;12.70;89.00
57857;DHT22;43683;48.650;9.290;2023-05-21T04:58:46;12.80;89.00
57857;DHT22;43683;48.650;9.290;2023-05-21T05:01:16;12.80;88.80
57857;DHT22;43683;48.650;9.290;2023-05-21T05:03:44;12.90;88.80
57857;DHT22;43683;48.650;9.290;2023-05-21T05:06:10;13.00;88.60
57857;DHT22;43683;48.650;9.290;2023-05-21T05:08:35;13.10;88.40
57857;DHT22;43683;48.650;9.290;2023-05-21T05:11:01;13.20;88.20
57857;DHT22;43683;48.650;9.290;2023-05-21T05:13:27;13.30;88.00
57857;DHT22;43683;48.650;9.290;2023-05-21T05:15:53;13.40;87.80
57857;DHT22;43683;48.650;9.290;2023-05-21T05:18:20;13.60;87.60
57857;DHT22;43683;48.650;9.290;2023-05-21T05:20:45;13.70;87.30
57857;DHT22;43683;48.650;9.290;2023-05-21T05:23:12;13.80;87.10
57857;DHT22;43683;48.650;9.290;2023-05-21T05:25:37;13.90;86.80
57857;DHT22;43683;48.650;9.290;2023-05-21T05:28:03;14.10;86.50
57857;DHT22;43683;48.650;9.290;2023-05-21T05:30:28;14.20;86.20
57857;DHT22;43683;48.650;9.290;2023-05-21T05:32:54;14.40;85.90
57857;DHT22;43683;48.650;9.290;2023-05-21T05:35:20;14.50;85.50
57857;DHT22;43683;48.650;9.290;2023-05-21T05:37:45;14.70;85.00
57857;DHT22;43683;48.650;9.290;2023-05-21T05:40:11;14.80;84.60
57857;DHT22;43683;48.650;9.290;2023-05-21T05:42:36;15.00;84.30
57857;DHT22;43683;48.650;9.290;2023-05-21T05:45:02;15.20;84.00
57857;DHT22;43683;48.650;9.290;2023-05-21T05:47:27;15.30;83.60
57857;DHT22;43683;48.650;9.290;2023-05-21T05:49:53;15.40;83.40
57857;DHT22;43683;48.650;9.290;2023-05-21T05:52:19;15.50;83.20
57857;DHT22;43683;48.650;9.290;2023-05-21T05:54:45;15.60;83.10
57857;DHT22;43683;48.650;9.290;2023-05-21T05:57:11;15.70;82.90
57857;DHT22;43683;48.650;9.290;2023-05-21T05:59:36;15.80;82.80
57857;DHT22;43683;48.650;9.290;2023-05-21T06:02:02;16.00;82.60
57857;DHT22;43683;48.650;9.290;2023-05-21T06:04:27;16.10;82.10
57857;DHT22;43683;48.650;9.290;2023-05-21T06:06:57;16.30;81.90
57857;DHT22;43683;48.650;9.290;2023-05-21T06:09:24;16.50;81.50
57857;DHT22;43683;48.650;9.290;2023-05-21T06:11:49;16.70;81.10
57857;DHT22;43683;48.650;9.290;2023-05-21T06:14:15;16.80;80.60
57857;DHT22;43683;48.650;9.290;2023-05-21T06:16:41;17.00;80.50
57857;DHT22;43683;48.650;9.290;2023-05-21T06:19:06;17.20;80.20
57857;DHT22;43683;48.650;9.290;2023-05-21T06:21:32;17.40;79.70
57857;DHT22;43683;48.650;9.290;2023-05-21T06:23:58;17.50;79.30
57857;DHT22;43683;48.650;9.290;2023-05-21T06:26:23;17.60;79.00
57857;DHT22;43683;48.650;9.290;2023-05-21T06:28:49;17.70;78.70
57857;DHT22;43683;48.650;9.290;2023-05-21T06:31:15;17.80;78.60
57857;DHT22;43683;48.650;9.290;2023-05-21T06:33:40;17.90;78.50
57857;DHT22;43683;48.650;9.290;2023-05-21T06:36:06;17.90;78.40
57857;DHT22;43683;48.650;9.290;2023-05-21T06:38:32;18.10;78.00
57857;DHT22;43683;48.650;9.290;2023-05-21T06:40:58;18.30;77.50
57857;DHT22;43683;48.650;9.290;2023-05-21T06:43:23;18.40;77.20
57857;DHT22;43683;48.650;9.290;2023-05-21T06:45:49;18.50;76.80
57857;DHT22;43683;48.650;9.290;2023-05-21T06:48:15;18.70;76.50
57857;DHT22;43683;48.650;9.290;2023-05-21T06:50:41;18.80;76.00
57857;DHT22;43683;48.650;9.290;2023-05-21T06:53:07;19.00;75.50
57857;DHT22;43683;48.650;9.290;2023-05-21T06:55:33;19.10;75.20
57857;DHT22;43683;48.650;9.290;2023-05-21T06:57:58;19.20;74.90
57857;DHT22;43683;48.650;9.290;2023-05-21T07:00:24;19.30;74.60
57857;DHT22;43683;48.650;9.290;2023-05-21T07:02:50;19.50;74.30
57857;DHT22;43683;48.650;9.290;2023-05-21T07:05:15;19.70;73.80
57857;DHT22;43683;48.650;9.290;2023-05-21T07:07:41;19.80;74.10
57857;DHT22;43683;48.650;9.290;2023-05-21T07:10:07;19.90;73.40
57857;DHT22;43683;48.650;9.290;2023-05-21T07:12:33;20.00;73.30
57857;DHT22;43683;48.650;9.290;2023-05-21T07:14:59;20.30;72.50
57857;DHT22;43683;48.650;9.290;2023-05-21T07:17:24;20.50;72.00
57857;DHT22;43683;48.650;9.290;2023-05-21T07:19:50;20.60;71.50
57857;DHT22;43683;48.650;9.290;2023-05-21T07:22:15;20.80;71.30
57857;DHT22;43683;48.650;9.290;2023-05-21T07:24:41;21.00;70.80
57857;DHT22;43683;48.650;9.290;2023-05-21T07:27:06;21.20;70.10
57857;DHT22;43683;48.650;9.290;2023-05-21T07:29:32;21.50;69.80
57857;DHT22;43683;48.650;9.290;2023-05-21T07:31:58;21.80;69.30
57857;DHT22;43683;48.650;9.290;2023-05-21T07:34:24;21.90;69.00
57857;DHT22;43683;48.650;9.290;2023-05-21T07:36:50;21.90;68.90
57857;DHT22;43683;48.650;9.290;2023-05-21T07:39:16;22.00;68.70
57857;DHT22;43683;48.650;9.290;2023-05-21T07:41:41;22.30;68.00
57857;DHT22;43683;48.650;9.290;2023-05-21T07:44:07;22.40;67.60
57857;DHT22;43683;48.650;9.290;2023-05-21T07:46:32;22.40;67.60
57857;DHT22;43683;48.650;9.290;2023-05-21T07:48:58;22.50;66.90
57857;DHT22;43683;48.650;9.290;2023-05-21T07:51:24;22.40;66.90
57857;DHT22;43683;48.650;9.290;2023-05-21T07:53:50;22.70;66.50
57857;DHT22;43683;48.650;9.290;2023-05-21T07:56:15;22.90;65.90
57857;DHT22;43683;48.650;9.290;2023-05-21T07:58:41;22.80;65.70
57857;DHT22;43683;48.650;9.290;2023-05-21T08:01:08;23.00;65.30
57857;DHT22;43683;48.650;9.290;2023-05-21T08:03:34;23.20;64.80
57857;DHT22;43683;48.650;9.290;2023-05-21T08:05:59;23.20;64.20
57857;DHT22;43683;48.650;9.290;2023-05-21T08:08:25;23.10;64.10
57857;DHT22;43683;48.650;9.290;2023-05-21T08:10:50;22.90;64.00
57857;DHT22;43683;48.650;9.290;2023-05-21T08:13:16;23.00;63.90
57857;DHT22;43683;48.650;9.290;2023-05-21T08:15:42;23.20;63.40
57857;DHT22;43683;48.650;9.290;2023-05-21T08:18:08;23.10;62.90
57857;DHT22;43683;48.650;9.290;2023-05-21T08:20:33;23.20;62.30
57857;DHT22;43683;48.650;9.290;2023-05-21T08:22:59;23.20;62.00
57857;DHT22;43683;48.650;9.290;2023-05-21T08:25:28;23.30;61.20
57857;DHT22;43683;48.650;9.290;2023-05-21T08:27:54;23.30;61.00
57857;DHT22;43683;48.650;9.290;2023-05-21T08:30:19;23.80;60.50
57857;DHT22;43683;48.650;9.290;2023-05-21T08:32:46;23.90;59.60
57857;DHT22;43683;48.650;9.290;2023-05-21T08:35:12;23.80;59.20
57857;DHT22;43683;48.650;9.290;2023-05-21T08:37:37;24.10;58.80
57857;DHT22;43683;48.650;9.290;2023-05-21T08:40:03;24.50;58.10
57857;DHT22;43683;48.650;9.290;2023-05-21T08:42:39;24.50;58.00
57857;DHT22;43683;48.650;9.290;2023-05-21T08:45:07;24.70;56.70
57857;DHT22;43683;48.650;9.290;2023-05-21T08:47:34;24.60;56.80
57857;DHT22;43683;48.650;9.290;2023-05-21T08:50:11;24.70;56.80
57857;DHT22;43683;48.650;9.290;2023-05-21T08:52:37;24.80;56.50
57857;DHT22;43683;48.650;9.290;2023-05-21T08:55:03;24.60;56.40
57857;DHT22;43683;48.650;9.290;2023-05-21T08:57:30;24.50;56.30
57857;DHT22;43683;48.650;9.290;2023-05-21T08:59:56;24.40;56.20
57857;DHT22;43683;48.650;9.290;2023-05-21T09:02:22;24.20;56.10
57857;DHT22;43683;48.650;9.290;2023-05-21T09:04:50;24.10;56.10
57857;DHT22;43683;48.650;9.290;2023-05-21T09:07:21;24.10;55.90
57857;DHT22;43683;48.650;9.290;2023-05-21T09:10:05;24.30;55.50
57857;DHT22;43683;48.650;9.290;2023-05-21T09:12:33;24.30;54.90
57857;DHT22;43683;48.650;9.290;2023-05-21T09:15:00;24.40;54.90
57857;DHT22;43683;48.650;9.290;2023-05-21T09:17:25;24.20;54.90
57857;DHT22;43683;48.650;9.290;2023-05-21T09:20:11;24.10;54.90
57857;DHT22;43683;48.650;9.290;2023-05-21T09:22:41;24.00;54.80
57857;DHT22;43683;48.650;9.290;2023-05-21T09:25:08;24.10;54.80
57857;DHT22;43683;48.650;9.290;2023-05-21T09:27:35;24.20;54.80
57857;DHT22;43683;48.650;9.290;2023-05-21T09:30:08;24.30;54.60
57857;DHT22;43683;48.650;9.290;2023-05-21T09:32:33;24.20;54.40
57857;DHT22;43683;48.650;9.290;2023-05-21T09:35:10;24.10;55.20
57857;DHT22;43683;48.650;9.290;2023-05-21T09:37:40;24.20;54.70
57857;DHT22;43683;48.650;9.290;2023-05-21T09:40:18;24.30;54.40
57857;DHT22;43683;48.650;9.290;2023-05-21T09:42:51;24.30;54.50
57857;DHT22;43683;48.650;9.290;2023-05-21T09:45:21;24.20;54.10
57857;DHT22;43683;48.650;9.290;2023-05-21T09:47:48;24.20;54.90
57857;DHT22;43683;48.650;9.290;2023-05-21T09:50:18;23.80;54.60
57857;DHT22;43683;48.650;9.290;2023-05-21T09:52:44;23.70;55.30
57857;DHT22;43683;48.650;9.290;2023-05-21T09:55:11;23.50;55.40
57857;DHT22;43683;48.650;9.290;2023-05-21T09:57:43;23.70;55.10
57857;DHT22;43683;48.650;9.290;2023-05-21T10:00:17;23.70;55.40
57857;DHT22;43683;48.650;9.290;2023-05-21T10:02:47;23.70;54.90
57857;DHT22;43683;48.650;9.290;2023-05-21T10:05:14;23.70;55.00
57857;DHT22;43683;48.650;9.290;2023-05-21T10:07:41;24.00;54.50
57857;DHT22;43683;48.650;9.290;2023-05-21T10:10:12;24.30;54.10
57857;DHT22;43683;48.650;9.290;2023-05-21T10:12:42;24.60;53.80
57857;DHT22;43683;48.650;9.290;2023-05-21T10:15:13;24.60;53.50
57857;DHT22;43683;48.650;9.290;2023-05-21T10:17:40;24.80;53.10
57857;DHT22;43683;48.650;9.290;2023-05-21T10:20:07;25.20;52.40
57857;DHT22;43683;48.650;9.290;2023-05-21T10:22:35;25.40;52.00
57857;DHT22;43683;48.650;9.290;2023-05-21T10:25:01;25.40;51.60
57857;DHT22;43683;48.650;9.290;2023-05-21T10:27:29;25.40;51.50
57857;DHT22;43683;48.650;9.290;2023-05-21T10:29:56;25.50;51.20
57857;DHT22;43683;48.650;9.290;2023-05-21T10:32:24;25.60;51.00
57857;DHT22;43683;48.650;9.290;2023-05-21T10:34:52;25.70;50.70
57857;DHT22;43683;48.650;9.290;2023-05-21T10:37:20;25.70;50.40
57857;DHT22;43683;48.650;9.290;2023-05-21T10:39:47;25.70;50.50
57857;DHT22;43683;48.650;9.290;2023-05-21T10:44:59;25.70;50.50
57857;DHT22;43683;48.650;9.290;2023-05-21T10:56:29;25.70;49.30
57857;DHT22;43683;48.650;9.290;2023-05-21T11:01:50;25.90;48.70
57857;DHT22;43683;48.650;9.290;2023-05-21T11:04:21;25.90;48.50
57857;DHT22;43683;48.650;9.290;2023-05-21T11:06:47;25.70;48.00
57857;DHT22;43683;48.650;9.290;2023-05-21T11:09:14;25.60;48.10
57857;DHT22;43683;48.650;9.290;2023-05-21T11:11:48;25.70;47.80
57857;DHT22;43683;48.650;9.290;2023-05-21T11:14:40;25.60;47.50
57857;DHT22;43683;48.650;9.290;2023-05-21T11:17:35;25.50;47.40
57857;DHT22;43683;48.650;9.290;2023-05-21T11:20:10;25.60;47.40
57857;DHT22;43683;48.650;9.290;2023-05-21T11:22:37;25.50;47.70
57857;DHT22;43683;48.650;9.290;2023-05-21T11:25:02;25.60;47.60
57857;DHT22;43683;48.650;9.290;2023-05-21T11:29:57;25.80;47.20
57857;DHT22;43683;48.650;9.290;2023-05-21T11:32:23;25.80;47.10
57857;DHT22;43683;48.650;9.290;2023-05-21T11:34:49;26.00;47.30
57857;DHT22;43683;48.650;9.290;2023-05-21T11:39:45;26.30;46.60
57857;DHT22;43683;48.650;9.290;2023-05-21T11:42:11;26.00;46.90
57857;DHT22;43683;48.650;9.290;2023-05-21T11:44:37;25.70;47.00
57857;DHT22;43683;48.650;9.290;2023-05-21T11:47:14;25.50;47.10
57857;DHT22;43683;48.650;9.290;2023-05-21T11:49:41;25.40;46.90
57857;DHT22;43683;48.650;9.290;2023-05-21T11:52:08;25.50;46.90
57857;DHT22;43683;48.650;9.290;2023-05-21T11:54:43;25.50;46.80
57857;DHT22;43683;48.650;9.290;2023-05-21T11:57:11;25.60;46.40
57857;DHT22;43683;48.650;9.290;2023-05-21T11:59:36;25.80;46.40
57857;DHT22;43683;48.650;9.290;2023-05-21T12:02:03;25.90;45.80
57857;DHT22;43683;48.650;9.290;2023-05-21T12:04:32;26.20;45.60
57857;DHT22;43683;48.650;9.290;2023-05-21T12:07:03;26.40;45.10
57857;DHT22;43683;48.650;9.290;2023-05-21T12:09:29;26.40;44.80
57857;DHT22;43683;48.650;9.290;2023-05-21T12:11:55;26.50;45.00
57857;DHT22;43683;48.650;9.290;2023-05-21T12:14:20;26.60;45.00
57857;DHT22;43683;48.650;9.290;2023-05-21T12:16:46;26.70;44.90
57857;DHT22;43683;48.650;9.290;2023-05-21T12:19:15;26.50;45.10
57857;DHT22;43683;48.650;9.290;2023-05-21T12:21:41;26.70;44.90
57857;DHT22;43683;48.650;9.290;2023-05-21T12:24:07;26.90;44.60
57857;DHT22;43683;48.650;9.290;2023-05-21T12:26:32;26.90;44.80
57857;DHT22;43683;48.650;9.290;2023-05-21T12:29:00;27.10;44.70
57857;DHT22;43683;48.650;9.290;2023-05-21T12:31:29;27.10;44.70
57857;DHT22;43683;48.650;9.290;2023-05-21T12:33:55;27.00;44.70
57857;DHT22;43683;48.650;9.290;2023-05-21T12:36:22;26.90;44.90
57857;DHT22;43683;48.650;9.290;2023-05-21T12:38:50;26.70;44.90
57857;DHT22;43683;48.650;9.290;2023-05-21T12:41:17;26.70;45.10
57857;DHT22;43683;48.650;9.290;2023-05-21T12:43:42;26.70;44.80
57857;DHT22;43683;48.650;9.290;2023-05-21T12:46:10;26.80;44.80
57857;DHT22;43683;48.650;9.290;2023-05-21T12:48:48;26.70;44.50
57857;DHT22;43683;48.650;9.290;2023-05-21T12:51:14;26.50;44.60
57857;DHT22;43683;48.650;9.290;2023-05-21T12:53:42;26.30;44.80
57857;DHT22;43683;48.650;9.290;2023-05-21T12:56:12;26.10;44.90
57857;DHT22;43683;48.650;9.290;2023-05-21T12:58:39;26.00;45.00
57857;DHT22;43683;48.650;9.290;2023-05-21T13:01:06;26.10;45.20
57857;DHT22;43683;48.650;9.290;2023-05-21T13:03:32;26.20;45.40
57857;DHT22;43683;48.650;9.290;2023-05-21T13:05:58;26.30;45.00
57857;DHT22;43683;48.650;9.290;2023-05-21T13:08:24;26.20;45.20
57857;DHT22;43683;48.650;9.290;2023-05-21T13:10:49;26.30;44.80
57857;DHT22;43683;48.650;9.290;2023-05-21T13:13:15;26.30;44.70
57857;DHT22;43683;48.650;9.290;2023-05-21T13:15:40;26.40;44.70
57857;DHT22;43683;48.650;9.290;2023-05-21T13:18:06;26.40;44.30
57857;DHT22;43683;48.650;9.290;2023-05-21T13:20:31;26.40;44.20
57857;DHT22;43683;48.650;9.290;2023-05-21T13:22:57;26.40;44.20
57857;DHT22;43683;48.650;9.290;2023-05-21T13:25:26;26.60;44.10
57857;DHT22;43683;48.650;9.290;2023-05-21T13:27:53;27.00;43.70
57857;DHT22;43683;48.650;9.290;2023-05-21T13:30:20;27.40;43.50
57857;DHT22;43683;48.650;9.290;2023-05-21T13:32:46;27.60;43.50
57857;DHT22;43683;48.650;9.290;2023-05-21T13:35:11;28.00;43.20
57857;DHT22;43683;48.650;9.290;2023-05-21T13:37:40;28.30;43.30
57857;DHT22;43683;48.650;9.290;2023-05-21T13:40:08;28.60;43.00
57857;DHT22;43683;48.650;9.290;2023-05-21T13:42:39;28.90;42.70
57857;DHT22;43683;48.650;9.290;2023-05-21T13:45:05;28.90;42.60
57857;DHT22;43683;48.650;9.290;2023-05-21T13:47:32;28.90;42.50
57857;DHT22;43683;48.650;9.290;2023-05-21T13:49:58;28.90;42.30
57857;DHT22;43683;48.650;9.290;2023-05-21T13:52:23;28.80;42.10
57857;DHT22;43683;48.650;9.290;2023-05-21T13:54:49;28.60;42.20
57857;DHT22;43683;48.650;9.290;2023-05-21T13:57:14;28.70;42.00
57857;DHT22;43683;48.650;9.290;2023-05-21T13:59:40;28.60;41.60
57857;DHT22;43683;48.650;9.290;2023-05-21T14:02:07;28.60;41.60
57857;DHT22;43683;48.650;9.290;2023-05-21T14:04:33;28.70;41.50
57857;DHT22;43683;48.650;9.290;2023-05-21T14:06:58;28.50;42.00
57857;DHT22;43683;48.650;9.290;2023-05-21T14:09:24;28.20;42.20
57857;DHT22;43683;48.650;9.290;2023-05-21T14:11:52;28.00;42.20
57857;DHT22;43683;48.650;9.290;2023-05-21T14:14:17;27.60;42.30
57857;DHT22;43683;48.650;9.290;2023-05-21T14:16:47;27.30;42.40
57857;DHT22;43683;48.650;9.290;2023-05-21T14:19:13;27.00;42.60
57857;DHT22;43683;48.650;9.290;2023-05-21T14:21:38;26.80;42.60
57857;DHT22;43683;48.650;9.290;2023-05-21T14:24:04;26.60;42.70
57857;DHT22;43683;48.650;9.290;2023-05-21T14:26:29;26.50;42.80
57857;DHT22;43683;48.650;9.290;2023-05-21T14:28:55;26.40;42.70
57857;DHT22;43683;48.650;9.290;2023-05-21T14:31:21;26.20;42.70
57857;DHT22;43683;48.650;9.290;2023-05-21T14:33:47;26.20;42.90
57857;DHT22;43683;48.650;9.290;2023-05-21T14:36:13;26.00;43.00
57857;DHT22;43683;48.650;9.290;2023-05-21T14:38:38;26.00;43.00
57857;DHT22;43683;48.650;9.290;2023-05-21T14:41:04;26.00;42.90
57857;DHT22;43683;48.650;9.290;2023-05-21T14:43:31;25.90;42.90
57857;DHT22;43683;48.650;9.290;2023-05-21T14:45:57;25.80;43.00
57857;DHT22;43683;48.650;9.290;2023-05-21T14:48:22;25.70;43.00
57857;DHT22;43683;48.650;9.290;2023-05-21T14:50:49;25.70;43.00
57857;DHT22;43683;48.650;9.290;2023-05-21T14:53:15;25.80;43.00
57857;DHT22;43683;48.650;9.290;2023-05-21T14:55:40;25.80;43.40
57857;DHT22;43683;48.650;9.290;2023-05-21T14:58:06;25.70;43.50
57857;DHT22;43683;48.650;9.290;2023-05-21T15:00:33;25.70;43.60
57857;DHT22;43683;48.650;9.290;2023-05-21T15:02:59;25.70;44.30
57857;DHT22;43683;48.650;9.290;2023-05-21T15:05:26;25.50;43.70
57857;DHT22;43683;48.650;9.290;2023-05-21T15:07:55;25.30;44.10
57857;DHT22;43683;48.650;9.290;2023-05-21T15:10:21;25.20;44.20
57857;DHT22;43683;48.650;9.290;2023-05-21T15:12:47;25.10;44.40
57857;DHT22;43683;48.650;9.290;2023-05-21T15:15:13;25.00;44.70
57857;DHT22;43683;48.650;9.290;2023-05-21T15:17:38;24.80;44.90
57857;DHT22;43683;48.650;9.290;2023-05-21T15:20:06;24.70;44.90
57857;DHT22;43683;48.650;9.290;2023-05-21T15:22:32;24.60;45.30
57857;DHT22;43683;48.650;9.290;2023-05-21T15:24:59;24.50;45.40
57857;DHT22;43683;48.650;9.290;2023-05-21T15:27:24;24.40;45.50
57857;DHT22;43683;48.650;9.290;2023-05-21T15:29:50;24.40;46.30
57857;DHT22;43683;48.650;9.290;2023-05-21T15:32:17;24.30;45.70
57857;DHT22;43683;48.650;9.290;2023-05-21T15:34:42;24.30;46.60
57857;DHT22;43683;48.650;9.290;2023-05-21T15:37:08;24.20;45.90
57857;DHT22;43683;48.650;9.290;2023-05-21T15:39:34;24.10;46.00
57857;DHT22;43683;48.650;9.290;2023-05-21T15:41:59;24.00;46.00
57857;DHT22;43683;48.650;9.290;2023-05-21T15:44:25;24.00;46.00
57857;DHT22;43683;48.650;9.290;2023-05-21T15:46:51;23.90;46.10
57857;DHT22;43683;48.650;9.290;2023-05-21T15:49:18;23.90;46.30
57857;DHT22;43683;48.650;9.290;2023-05-21T15:51:45;23.90;46.30